Time;durP1;ratioP1;P1;durP2;ratioP2;P2;SDS_P1;SDS_P2;PMS_P1;PMS_P2;Temp;Humidity;BMP_temperature;BMP_pressure;BME280_temperature;BME280_humidity;BME280_pressure;Samples;Min_cycle;Max_cycle;Signal;HPM_P1;HPM_P2
2021/10/27 00:02:15;;;;;;;;;2.50;2.00;;;;;21.46;44.88;102119.31;5007543;28;51277;-45
2021/10/27 00:04:41;;;;;;;;;3.00;3.00;;;;;21.45;45.38;102121.22;5006514;28;51915;-47
2021/10/27 00:07:06;;;;;;;;;3.25;3.25;;;;;21.44;44.89;102119.50;5005381;28;51102;-47
2021/10/27 00:09:32;;;;;;;;;1.75;1.25;;;;;21.43;45.00;102122.47;5015336;28;51250;-45
2021/10/27 00:11:57;;;;;;;;;4.75;3.00;;;;;21.44;45.49;102124.16;5004679;28;50948;-47
2021/10/27 00:14:22;;;;;;;;;1.50;1.50;;;;;21.42;45.50;102124.38;5007156;28;51118;-47
2021/10/27 00:16:48;;;;;;;;;2.50;2.50;;;;;21.42;45.44;102129.03;5006542;28;51146;-47
2021/10/27 00:19:14;;;;;;;;;3.50;2.50;;;;;21.40;44.99;102120.97;5009570;28;51223;-49
2021/10/27 00:21:39;;;;;;;;;2.00;2.00;;;;;21.41;45.08;102124.56;5007981;28;51222;-49
2021/10/27 00:24:05;;;;;;;;;2.00;2.00;;;;;21.39;45.52;102133.03;5007578;28;52745;-50
2021/10/27 00:26:30;;;;;;;;;1.50;1.50;;;;;21.39;45.06;102123.91;5004322;28;51193;-51
2021/10/27 00:28:55;;;;;;;;;0.75;0.00;;;;;21.38;45.55;102131.34;5009292;28;51161;-52
2021/10/27 00:31:21;;;;;;;;;2.00;2.00;;;;;21.37;45.13;102132.41;5008139;28;50983;-46
2021/10/27 00:33:47;;;;;;;;;2.75;2.75;;;;;21.37;45.02;102131.53;5005752;28;51888;-44
2021/10/27 00:36:12;;;;;;;;;2.25;1.75;;;;;21.36;45.52;102133.41;5006211;28;51131;-46
2021/10/27 00:38:38;;;;;;;;;2.00;2.00;;;;;21.35;45.33;102131.72;5006164;28;50988;-50
2021/10/27 00:41:07;;;;;;;;;2.50;1.25;;;;;21.35;45.62;102133.63;5003177;28;51313;-49
2021/10/27 00:43:33;;;;;;;;;3.00;2.00;;;;;21.33;45.56;102128.31;5007733;28;51818;-50
2021/10/27 00:45:58;;;;;;;;;2.00;1.75;;;;;21.33;45.34;102139.31;5007934;28;51095;-46
2021/10/27 00:48:24;;;;;;;;;1.00;1.00;;;;;21.32;45.57;102126.59;5008781;28;51074;-51
2021/10/27 00:50:49;;;;;;;;;1.25;0.50;;;;;21.32;45.46;102132.97;5010892;28;50920;-50
2021/10/27 00:53:15;;;;;;;;;2.00;2.00;;;;;21.31;45.19;102130.41;5003168;28;52078;-49
2021/10/27 00:55:40;;;;;;;;;3.00;2.00;;;;;21.31;45.51;102136.78;5009137;28;51153;-48
2021/10/27 00:58:06;;;;;;;;;4.25;3.50;;;;;21.30;45.10;102140.59;5005894;28;51075;-51
2021/10/27 01:00:32;;;;;;;;;3.00;2.00;;;;;21.29;45.30;102138.88;5005320;28;51396;-51
2021/10/27 01:02:57;;;;;;;;;1.50;1.50;;;;;21.29;45.55;102138.03;5008400;28;52001;-49
2021/10/27 01:05:23;;;;;;;;;2.50;1.00;;;;;21.27;45.43;102132.72;5008689;28;51058;-48
2021/10/27 01:07:49;;;;;;;;;2.00;2.00;;;;;21.28;45.37;102133.56;5007802;28;51012;-46
2021/10/27 01:10:14;;;;;;;;;2.00;2.00;;;;;21.26;45.34;102131.00;5005456;28;51771;-50
2021/10/27 01:12:40;;;;;;;;;1.50;1.50;;;;;21.26;45.17;102128.25;5007962;28;51893;-52
2021/10/27 01:15:07;;;;;;;;;2.00;2.00;;;;;21.27;45.29;102129.13;5007556;28;51100;-49
2021/10/27 01:17:33;;;;;;;;;1.00;1.00;;;;;21.25;45.42;102137.50;4989193;28;51378;-50
2021/10/27 01:20:00;;;;;;;;;1.00;1.00;;;;;21.24;45.77;102133.06;5007374;28;50933;-47
2021/10/27 01:22:30;;;;;;;;;4.50;1.75;;;;;21.24;45.43;102124.78;5008436;28;51077;-49
2021/10/27 01:24:56;;;;;;;;;2.75;2.75;;;;;21.24;45.28;102126.69;5009404;28;51125;-49
2021/10/27 01:27:23;;;;;;;;;2.00;2.00;;;;;21.23;45.73;102117.56;5012404;28;51209;-50
2021/10/27 01:29:49;;;;;;;;;2.00;2.00;;;;;21.23;45.41;102128.59;5009089;28;51226;-50
2021/10/27 01:32:31;;;;;;;;;3.00;2.25;;;;;21.22;45.42;102120.53;5003531;28;51075;-49
2021/10/27 01:34:58;;;;;;;;;2.00;1.00;;;;;21.22;45.86;102126.91;5006485;28;51359;-49
2021/10/27 01:37:25;;;;;;;;;2.00;2.00;;;;;21.21;45.29;102124.34;5004666;28;51102;-49
2021/10/27 01:39:51;;;;;;;;;1.00;1.00;;;;;21.20;45.30;102123.50;5003765;28;51121;-49
2021/10/27 01:42:17;;;;;;;;;2.00;2.00;;;;;21.19;45.25;102108.00;5005086;28;52328;-48
2021/10/27 01:44:42;;;;;;;;;3.75;2.00;;;;;21.19;45.71;102107.16;5005214;28;51097;-50
2021/10/27 01:47:08;;;;;;;;;1.50;1.50;;;;;21.18;45.45;102114.56;5009333;28;51547;-47
2021/10/27 01:49:33;;;;;;;;;5.00;2.25;;;;;21.18;45.42;102106.31;5009457;28;51122;-45
2021/10/27 01:51:58;;;;;;;;;2.25;2.00;;;;;21.17;45.25;102112.03;5004398;28;51906;-44
2021/10/27 01:54:27;;;;;;;;;1.00;1.00;;;;;21.16;45.37;102105.66;5005025;28;51154;-46
2021/10/27 01:56:53;;;;;;;;;2.00;2.00;;;;;21.15;45.41;102101.16;5001642;28;51174;-49
2021/10/27 01:59:19;;;;;;;;;1.00;1.00;;;;;21.16;45.46;102104.81;5003432;28;51113;-52
2021/10/27 02:01:44;;;;;;;;;4.50;3.00;;;;;21.17;45.22;102098.25;5005508;28;51717;-49
2021/10/27 02:04:10;;;;;;;;;2.00;2.00;;;;;21.15;45.71;102097.56;5007524;28;50892;-48
2021/10/27 02:06:35;;;;;;;;;2.25;1.75;;;;;21.14;45.40;102095.84;5009502;28;51163;-51
2021/10/27 02:09:00;;;;;;;;;2.50;2.00;;;;;21.12;45.73;102086.94;5006770;28;51284;-46
2021/10/27 02:11:26;;;;;;;;;2.25;1.00;;;;;21.12;45.81;102085.03;5000923;28;52085;-48
2021/10/27 02:13:52;;;;;;;;;2.00;2.00;;;;;21.12;45.42;102087.78;5007616;28;50995;-48
2021/10/27 02:16:18;;;;;;;;;2.00;2.00;;;;;21.12;45.83;102086.94;5003066;28;51153;-50
2021/10/27 02:18:43;;;;;;;;;2.25;2.25;;;;;21.11;45.49;102086.09;5003976;28;51069;-47
2021/10/27 02:21:09;;;;;;;;;1.00;1.00;;;;;21.10;45.40;102081.63;5009519;28;51141;-46
2021/10/27 02:23:34;;;;;;;;;3.25;3.00;;;;;21.10;45.68;102083.53;5004525;28;51198;-49
2021/10/27 02:26:00;;;;;;;;;2.25;2.25;;;;;21.10;45.83;102084.38;5004665;28;51190;-46
2021/10/27 02:28:26;;;;;;;;;2.00;2.00;;;;;21.09;45.40;102085.44;5003215;28;51304;-47
2021/10/27 02:30:51;;;;;;;;;2.00;2.00;;;;;21.09;45.41;102081.84;5004382;28;51901;-46
2021/10/27 02:33:17;;;;;;;;;2.75;2.00;;;;;21.08;45.36;102085.63;5005245;28;51540;-47
2021/10/27 02:35:42;;;;;;;;;1.50;1.50;;;;;21.08;45.76;102091.16;5004539;28;51052;-49
2021/10/27 02:38:08;;;;;;;;;2.50;2.25;;;;;21.08;45.78;102083.72;5002426;28;51359;-45
2021/10/27 02:40:33;;;;;;;;;3.00;1.50;;;;;21.07;45.75;102093.06;5008642;28;51489;-50
2021/10/27 02:42:58;;;;;;;;;2.25;2.00;;;;;21.07;45.57;102087.53;5007387;28;51319;-51
2021/10/27 02:45:24;;;;;;;;;1.75;1.75;;;;;21.06;45.43;102088.59;5004985;28;51623;-48
2021/10/27 02:47:49;;;;;;;;;6.50;3.00;;;;;21.06;45.34;102091.34;5005317;28;51550;-48
2021/10/27 02:50:15;;;;;;;;;4.00;2.00;;;;;21.04;45.47;102088.75;5005107;28;51001;-50
2021/10/27 02:52:44;;;;;;;;;2.50;2.50;;;;;21.04;45.57;102090.66;4999793;28;51500;-49
2021/10/27 02:55:10;;;;;;;;;2.00;2.00;;;;;21.04;45.79;102087.91;5002595;28;51002;-51
2021/10/27 02:57:35;;;;;;;;;4.25;3.00;;;;;21.03;45.63;102080.69;5006996;28;51275;-46
2021/10/27 03:00:00;;;;;;;;;2.00;2.00;;;;;21.02;45.37;102084.50;5001141;28;51038;-47
2021/10/27 03:02:26;;;;;;;;;1.75;1.75;;;;;21.03;45.45;102088.97;5007891;28;51199;-45
2021/10/27 03:04:51;;;;;;;;;3.00;2.25;;;;;21.02;45.66;102082.59;5003228;28;51145;-50
2021/10/27 03:07:17;;;;;;;;;3.00;2.00;;;;;21.02;45.77;102087.25;5004443;28;51323;-48
2021/10/27 03:09:42;;;;;;;;;2.75;2.25;;;;;21.01;45.77;102080.06;5003965;28;51134;-48
2021/10/27 03:12:08;;;;;;;;;3.50;2.00;;;;;21.00;45.50;102081.94;5007171;28;51228;-46
2021/10/27 03:14:33;;;;;;;;;1.75;1.00;;;;;21.01;45.87;102080.06;5004822;28;51210;-52
2021/10/27 03:16:58;;;;;;;;;4.25;3.50;;;;;21.01;45.62;102085.56;5006965;28;51094;-49
2021/10/27 03:19:23;;;;;;;;;2.25;2.25;;;;;21.00;45.81;102078.34;5000551;28;51792;-49
2021/10/27 03:21:49;;;;;;;;;2.75;2.75;;;;;21.00;45.63;102081.09;5008269;28;51129;-49
2021/10/27 03:24:16;;;;;;;;;2.75;2.75;;;;;20.98;45.98;102073.03;4997056;28;51136;-48
2021/10/27 03:26:43;;;;;;;;;3.25;1.50;;;;;20.99;46.19;102071.13;5010490;28;50945;-50
2021/10/27 03:29:08;;;;;;;;;2.50;1.00;;;;;20.98;45.43;102069.44;5007969;28;51245;-49
2021/10/27 03:31:34;;;;;;;;;4.25;2.00;;;;;20.96;45.52;102068.78;5003203;28;51153;-47
2021/10/27 03:33:59;;;;;;;;;3.00;2.00;;;;;20.97;45.44;102057.56;5005943;28;51135;-50
2021/10/27 03:36:25;;;;;;;;;3.25;3.25;;;;;20.96;45.59;102064.13;5004711;28;51491;-46
2021/10/27 03:38:50;;;;;;;;;3.00;3.00;;;;;20.95;45.48;102067.94;5003466;28;51729;-51
2021/10/27 03:41:16;;;;;;;;;3.00;3.00;;;;;20.96;45.81;102060.53;5001342;28;51035;-48
2021/10/27 03:43:42;;;;;;;;;4.00;3.00;;;;;20.95;45.51;102058.81;5005163;28;51534;-49
2021/10/27 03:46:07;;;;;;;;;4.50;3.50;;;;;20.95;45.80;102064.31;5006643;28;51037;-51
2021/10/27 03:48:33;;;;;;;;;2.75;2.75;;;;;20.94;45.92;102063.44;5004255;28;51168;-49
2021/10/27 03:50:58;;;;;;;;;3.75;2.75;;;;;20.93;45.67;102070.00;5009141;28;51086;-49
2021/10/27 03:53:23;;;;;;;;;4.00;3.00;;;;;20.93;45.55;102072.75;5011207;28;51785;-50
2021/10/27 03:55:49;;;;;;;;;3.00;3.00;;;;;20.93;45.50;102071.91;5004463;28;50993;-50
2021/10/27 03:58:14;;;;;;;;;4.75;3.75;;;;;20.91;45.51;102083.13;5002767;28;51795;-48
2021/10/27 04:00:40;;;;;;;;;4.00;4.00;;;;;20.90;45.89;102077.81;5005777;28;51044;-48
2021/10/27 04:03:06;;;;;;;;;4.75;3.00;;;;;20.91;45.26;102082.28;5005718;28;51228;-48
2021/10/27 04:05:32;;;;;;;;;3.50;2.50;;;;;20.90;45.47;102077.81;5011188;28;50955;-49
2021/10/27 04:07:58;;;;;;;;;3.25;3.25;;;;;20.89;45.32;102074.22;5006240;28;51286;-47
2021/10/27 04:10:23;;;;;;;;;3.50;3.25;;;;;20.89;45.46;102074.22;5007153;28;51149;-48
2021/10/27 04:12:49;;;;;;;;;1.75;0.75;;;;;20.88;45.82;102064.25;5003419;28;51211;-52
2021/10/27 04:15:14;;;;;;;;;4.00;4.00;;;;;20.88;45.54;102064.25;5011369;28;51174;-48
2021/10/27 04:17:41;;;;;;;;;4.00;3.00;;;;;20.87;45.35;102059.78;5012977;28;51055;-44
2021/10/27 04:20:08;;;;;;;;;2.50;2.50;;;;;20.86;45.76;102058.09;5013066;28;51509;-47
2021/10/27 04:22:34;;;;;;;;;2.75;2.00;;;;;20.85;45.28;102061.88;5009008;28;51154;-47
2021/10/27 04:25:00;;;;;;;;;3.25;3.25;;;;;20.85;45.86;102069.31;5009358;28;51217;-51
2021/10/27 04:27:25;;;;;;;;;3.50;3.50;;;;;20.85;45.84;102070.16;5000395;28;51628;-50
2021/10/27 04:29:51;;;;;;;;;3.50;3.50;;;;;20.85;45.52;102072.06;5007594;28;51016;-48
2021/10/27 04:32:16;;;;;;;;;4.50;4.25;;;;;20.84;45.46;102075.81;5007295;28;51165;-51
2021/10/27 04:34:42;;;;;;;;;3.25;2.50;;;;;20.84;45.93;102081.34;5009710;28;51128;-49
2021/10/27 04:37:08;;;;;;;;;4.00;3.00;;;;;20.84;45.88;102084.09;4988675;28;51809;-49
2021/10/27 04:39:34;;;;;;;;;3.25;3.00;;;;;20.83;45.69;102076.88;5004919;28;51836;-47
2021/10/27 04:42:00;;;;;;;;;5.50;2.75;;;;;20.83;45.38;102074.97;5007109;28;51234;-48
2021/10/27 04:44:25;;;;;;;;;4.75;4.75;;;;;20.82;45.42;102081.53;5005644;28;51359;-50
2021/10/27 04:46:50;;;;;;;;;3.50;3.00;;;;;20.82;45.89;102088.94;5011537;28;51172;-51
2021/10/27 04:49:16;;;;;;;;;3.25;3.25;;;;;20.82;45.70;102095.31;5009862;28;51252;-44
2021/10/27 04:51:41;;;;;;;;;4.00;4.00;;;;;20.82;45.52;102094.44;5000651;28;51081;-45
2021/10/27 04:54:07;;;;;;;;;4.00;3.00;;;;;20.80;45.86;102088.28;5013031;28;51040;-49
2021/10/27 04:56:32;;;;;;;;;3.50;3.50;;;;;20.80;45.73;102082.78;5005321;28;51729;-49
2021/10/27 04:58:57;;;;;;;;;6.00;4.00;;;;;20.79;45.67;102081.09;5004356;28;51141;-46
2021/10/27 05:01:23;;;;;;;;;4.00;4.00;;;;;20.78;45.67;102091.25;5007689;28;51156;-50
2021/10/27 05:03:48;;;;;;;;;5.00;5.00;;;;;20.77;45.39;102085.94;4989336;28;51419;-48
2021/10/27 05:06:13;;;;;;;;;3.00;3.00;;;;;20.78;45.59;102082.13;5005652;28;51064;-50
2021/10/27 05:08:39;;;;;;;;;4.75;4.00;;;;;20.77;45.72;102084.03;5010341;28;51001;-50
2021/10/27 05:11:06;;;;;;;;;4.00;4.00;;;;;20.78;45.80;102087.66;5008243;28;51205;-49
2021/10/27 05:13:31;;;;;;;;;5.25;4.00;;;;;20.76;45.79;102093.34;5000745;28;51186;-49
2021/10/27 05:15:57;;;;;;;;;5.25;5.25;;;;;20.76;45.89;102093.34;5005813;28;51844;-49
2021/10/27 05:18:22;;;;;;;;;8.50;5.50;;;;;20.75;45.37;102098.00;5007281;28;51094;-47
2021/10/27 05:20:48;;;;;;;;;8.00;8.00;;;;;20.74;44.97;102090.78;5012530;28;51038;-49
2021/10/27 05:23:14;;;;;;;;;12.00;9.25;;;;;20.72;44.58;102092.88;5006860;28;51323;-50
2021/10/27 05:25:40;;;;;;;;;8.75;8.50;;;;;20.69;45.05;102087.75;4998440;28;51171;-49
2021/10/27 05:28:05;;;;;;;;;8.50;8.25;;;;;20.66;44.59;102088.16;5011706;28;51091;-49
2021/10/27 05:30:31;;;;;;;;;12.50;9.00;;;;;20.64;44.21;102083.88;5008803;28;51224;-48
2021/10/27 05:32:57;;;;;;;;;11.50;10.00;;;;;20.60;44.26;102091.66;5005662;28;51374;-49
2021/10/27 05:35:25;;;;;;;;;14.50;11.00;;;;;20.57;44.37;102097.56;5005269;28;51256;-49
2021/10/27 05:37:50;;;;;;;;;11.25;9.75;;;;;20.54;44.33;102084.19;5002517;28;51540;-49
2021/10/27 05:40:15;;;;;;;;;9.75;8.00;;;;;20.49;44.39;102081.16;5005189;28;51336;-49
2021/10/27 05:42:41;;;;;;;;;9.75;9.50;;;;;20.50;44.38;102082.00;5005520;28;51097;-48
2021/10/27 05:45:08;;;;;;;;;10.50;7.00;;;;;20.53;44.30;102071.47;4993462;28;51087;-48
2021/10/27 05:47:34;;;;;;;;;7.75;5.50;;;;;20.60;44.43;102072.41;5007452;28;51420;-48
2021/10/27 05:51:12;;;;;;;;;9.75;6.25;;;;;20.68;44.39;102069.53;5001177;28;51117;-49
2021/10/27 05:55:38;;;;;;;;;6.50;6.00;;;;;20.89;44.44;102068.69;5005103;28;51973;-49
2021/10/27 05:58:05;;;;;;;;;11.00;7.50;;;;;21.00;44.38;102075.59;5003480;28;52375;-49
2021/10/27 06:00:32;;;;;;;;;5.50;5.50;;;;;21.08;44.24;102069.97;5013221;28;51496;-46
2021/10/27 06:02:58;;;;;;;;;8.75;8.50;;;;;21.18;44.58;102075.16;5009677;28;51500;-49
2021/10/27 06:05:24;;;;;;;;;8.00;7.25;;;;;21.26;44.13;102069.53;5005742;28;51905;-49
2021/10/27 06:07:50;;;;;;;;;6.00;6.00;;;;;21.33;44.03;102065.75;5009525;28;51839;-47
2021/10/27 06:10:20;;;;;;;;;9.25;7.25;;;;;21.42;44.00;102060.13;5006950;28;51122;-48
2021/10/27 06:12:52;;;;;;;;;6.25;6.25;;;;;21.51;44.28;102057.00;5005844;28;51619;-47
2021/10/27 06:15:19;;;;;;;;;6.75;6.50;;;;;21.58;44.50;102065.34;5006171;28;51571;-50
2021/10/27 06:17:45;;;;;;;;;8.00;6.00;;;;;21.64;44.28;102067.28;5010467;28;51168;-50
2021/10/27 06:20:11;;;;;;;;;7.00;6.25;;;;;21.67;44.39;102068.78;5002127;28;51129;-48
2021/10/27 06:22:37;;;;;;;;;7.00;7.00;;;;;21.67;44.01;102069.63;4999511;28;51181;-50
2021/10/27 06:25:05;;;;;;;;;5.50;3.00;;;;;21.69;43.99;102067.56;5004266;28;51139;-45
2021/10/27 06:27:30;;;;;;;;;6.25;6.25;;;;;21.70;44.57;102071.16;5004234;28;51011;-49
2021/10/27 06:30:03;;;;;;;;;5.00;5.00;;;;;21.74;44.15;102069.69;5008100;28;51044;-50
2021/10/27 06:35:23;;;;;;;;;7.00;5.50;;;;;21.88;44.60;102079.75;5008977;28;51479;-46
2021/10/27 06:48:35;;;;;;;;;5.00;5.00;;;;;22.28;44.04;102086.38;4999793;28;51820;-49
2021/10/27 06:51:00;;;;;;;;;8.25;6.50;;;;;22.34;44.13;102093.88;5003096;28;51263;-50
2021/10/27 06:53:28;;;;;;;;;7.00;6.50;;;;;22.37;44.22;102092.59;4999156;28;51661;-47
2021/10/27 06:55:54;;;;;;;;;9.75;5.75;;;;;22.36;43.79;102097.28;5000628;28;52089;-50
2021/10/27 06:58:21;;;;;;;;;10.25;7.25;;;;;22.34;43.50;102104.06;5003824;28;51354;-51
2021/10/27 07:00:52;;;;;;;;;9.00;9.00;;;;;22.30;43.36;102106.38;5004373;28;51414;-47
2021/10/27 07:16:37;;;;;;;;;7.25;6.00;;;;;22.30;43.49;102108.25;5009422;28;51127;-54
2021/10/27 07:19:02;;;;;;;;;7.75;7.00;;;;;22.35;43.18;102111.28;5003225;28;51064;-50
2021/10/27 07:21:28;;;;;;;;;5.50;5.50;;;;;22.41;43.09;102118.75;5009031;28;51171;-53
2021/10/27 07:23:53;;;;;;;;;7.75;6.25;;;;;22.47;43.38;102124.28;5004921;28;51270;-50
2021/10/27 07:26:20;;;;;;;;;6.75;6.50;;;;;22.53;43.10;102127.31;5001288;28;51157;-53
2021/10/27 07:28:48;;;;;;;;;7.50;7.50;;;;;22.59;42.79;102129.22;5002725;28;51100;-50
2021/10/27 07:31:16;;;;;;;;;7.75;7.50;;;;;22.63;43.01;102125.88;5003852;28;51114;-51
2021/10/27 07:33:42;;;;;;;;;6.25;6.25;;;;;22.69;42.74;102129.69;4994969;28;51129;-52
2021/10/27 07:41:27;;;;;;;;;7.00;7.00;;;;;22.73;42.25;102133.78;4999717;28;51222;-53
2021/10/27 07:43:54;;;;;;;;;7.00;5.75;;;;;22.69;42.11;102133.31;5009168;28;50942;-52
2021/10/27 07:46:19;;;;;;;;;7.00;7.00;;;;;22.64;42.33;102135.84;5005148;28;51059;-51
2021/10/27 07:48:44;;;;;;;;;6.75;6.00;;;;;22.61;42.57;102138.16;5000661;28;51245;-52
2021/10/27 07:51:10;;;;;;;;;8.00;8.00;;;;;22.56;42.37;102146.22;5003859;28;51186;-52
2021/10/27 07:53:35;;;;;;;;;7.50;7.25;;;;;22.52;42.35;102148.56;5005047;28;51214;-51
2021/10/27 07:56:01;;;;;;;;;6.50;6.50;;;;;22.46;42.83;102150.22;5003362;28;53215;-52
2021/10/27 07:58:27;;;;;;;;;6.25;6.25;;;;;22.39;42.99;102145.69;5006880;28;51125;-47
2021/10/27 08:00:58;;;;;;;;;7.25;6.00;;;;;22.37;42.96;102151.41;5001892;28;51173;-50
2021/10/27 08:03:25;;;;;;;;;6.50;6.50;;;;;22.39;42.61;102146.53;5013506;28;51209;-52
2021/10/27 08:05:50;;;;;;;;;7.50;7.50;;;;;22.44;42.83;102157.84;5005752;28;51920;-50
2021/10/27 08:08:24;;;;;;;;;8.00;8.00;;;;;22.51;42.29;102152.38;5006049;28;51400;-52
2021/10/27 08:10:51;;;;;;;;;9.50;9.00;;;;;22.57;42.76;102157.06;5004000;28;51015;-51
2021/10/27 08:13:17;;;;;;;;;7.00;7.00;;;;;22.61;42.31;102155.56;5013799;28;51340;-49
2021/10/27 08:15:42;;;;;;;;;7.00;5.50;;;;;22.67;42.06;102154.78;5002824;28;51130;-50
2021/10/27 08:18:11;;;;;;;;;8.25;7.00;;;;;22.73;42.00;102156.72;5000327;28;51091;-51
2021/10/27 08:20:37;;;;;;;;;6.25;6.00;;;;;22.77;42.45;102151.63;5002675;28;50988;-50
2021/10/27 08:23:04;;;;;;;;;6.25;6.00;;;;;22.78;41.84;102147.81;5005648;28;51687;-50
2021/10/27 08:25:36;;;;;;;;;7.25;7.00;;;;;22.78;42.37;102153.31;5003323;28;51220;-46
2021/10/27 08:28:06;;;;;;;;;9.25;7.75;;;;;22.72;42.47;102149.50;5006084;28;51046;-52
2021/10/27 08:30:37;;;;;;;;;9.00;4.75;;;;;22.69;42.53;102160.09;5004281;28;51581;-52
2021/10/27 08:33:06;;;;;;;;;8.25;7.00;;;;;22.65;42.25;102156.03;5007401;28;51444;-49
2021/10/27 08:35:34;;;;;;;;;10.00;8.75;;;;;22.61;42.52;102151.97;5004491;28;51970;-52
2021/10/27 08:37:59;;;;;;;;;9.00;7.00;;;;;22.55;42.83;102139.84;5006165;28;51314;-52
2021/10/27 08:40:26;;;;;;;;;8.25;8.00;;;;;22.51;42.22;102138.56;4989175;28;53151;-51
2021/10/27 08:42:51;;;;;;;;;8.50;7.00;;;;;22.47;42.74;102138.09;5005666;28;51295;-49
2021/10/27 08:45:17;;;;;;;;;6.00;6.00;;;;;22.44;42.63;102132.16;5003665;28;51151;-46
2021/10/27 08:47:47;;;;;;;;;8.50;6.75;;;;;22.40;42.45;102139.13;5009347;28;51330;-49
2021/10/27 08:50:14;;;;;;;;;7.25;7.25;;;;;22.41;42.99;102140.84;5000695;28;51378;-51
2021/10/27 08:52:40;;;;;;;;;8.25;7.75;;;;;22.44;42.95;102140.44;5002046;28;51218;-51
2021/10/27 08:55:07;;;;;;;;;7.00;7.00;;;;;22.49;42.99;102140.66;5001809;28;51704;-51
2021/10/27 08:57:33;;;;;;;;;6.75;6.75;;;;;22.55;42.45;102142.59;5003767;28;51393;-48
2021/10/27 09:00:11;;;;;;;;;10.00;8.25;;;;;22.62;42.33;102139.88;5007095;28;51077;-48
2021/10/27 09:05:57;;;;;;;;;5.50;5.50;;;;;22.80;42.25;102136.53;4951196;28;51273;-50
2021/10/27 09:16:44;;;;;;;;;9.00;8.00;;;;;23.06;41.79;102127.53;5007401;28;51303;-50
2021/10/27 09:41:08;;;;;;;;;6.25;5.50;;;;;22.88;41.83;102136.41;5007467;28;51999;-50
2021/10/27 09:43:49;;;;;;;;;8.25;8.25;;;;;22.94;41.87;102136.44;5004224;28;52069;-49
2021/10/27 09:46:49;;;;;;;;;10.75;7.25;;;;;23.02;42.37;102130.69;5006054;28;52516;-50
2021/10/27 10:06:28;;;;;;;;;8.50;8.00;;;;;23.44;41.63;102133.31;5004521;28;51043;-47
2021/10/27 10:08:55;;;;;;;;;6.50;6.00;;;;;23.40;41.39;102134.81;5000973;28;51373;-51
2021/10/27 10:11:22;;;;;;;;;5.75;5.00;;;;;23.37;41.32;102130.56;5005899;28;51976;-49
2021/10/27 10:13:50;;;;;;;;;7.75;7.50;;;;;23.32;41.68;102128.41;5001841;28;51415;-48
2021/10/27 10:16:16;;;;;;;;;8.25;7.25;;;;;23.30;41.39;102133.31;5000105;28;51956;-48
2021/10/27 10:18:43;;;;;;;;;8.75;7.00;;;;;23.28;41.63;102126.28;5003209;28;51197;-50
2021/10/27 10:21:21;;;;;;;;;8.25;8.25;;;;;23.26;41.81;102129.28;5006308;28;51528;-50
2021/10/27 10:23:46;;;;;;;;;7.75;7.75;;;;;23.25;41.95;102129.50;5002783;28;53880;-49
2021/10/27 10:26:28;;;;;;;;;9.75;7.50;;;;;23.29;41.97;102134.38;5001888;28;51139;-51
2021/10/27 10:28:53;;;;;;;;;7.50;6.50;;;;;23.35;41.62;102137.38;5002974;28;51435;-50
2021/10/27 10:31:31;;;;;;;;;10.50;7.25;;;;;23.40;41.74;102135.66;5005010;28;52506;-49
2021/10/27 10:34:00;;;;;;;;;7.00;6.00;;;;;23.47;41.48;102133.75;5001175;28;51177;-50
2021/10/27 10:36:30;;;;;;;;;8.25;7.25;;;;;23.53;41.25;102132.91;4998563;28;51218;-52
2021/10/27 11:24:34;;;;;;;;;7.50;7.50;;;;;23.83;41.59;102089.09;5000632;28;51116;-47
2021/10/27 11:38:20;;;;;;;;;10.00;9.25;;;;;23.69;41.10;102084.66;5004358;28;51615;-50
2021/10/27 11:40:49;;;;;;;;;7.50;6.50;;;;;23.68;41.43;102077.41;5005060;28;51347;-50
2021/10/27 11:43:27;;;;;;;;;10.00;10.00;;;;;23.67;41.25;102069.34;5005729;28;51219;-50
2021/10/27 11:45:59;;;;;;;;;11.75;10.50;;;;;23.67;41.23;102072.09;5005167;28;51014;-45
2021/10/27 11:50:56;;;;;;;;;9.50;7.00;;;;;23.66;41.20;102067.63;5000752;28;51380;-51
2021/10/27 11:53:27;;;;;;;;;6.75;6.75;;;;;23.66;40.80;102068.47;5006764;28;51121;-45
2021/10/27 11:55:54;;;;;;;;;11.75;8.50;;;;;23.66;41.08;102053.81;5000281;28;51173;-50
2021/10/27 11:58:21;;;;;;;;;7.25;6.50;;;;;23.65;40.98;102060.38;5002098;28;51290;-49
2021/10/27 12:00:58;;;;;;;;;10.50;9.00;;;;;23.64;41.03;102055.91;5001723;28;51571;-50
2021/10/27 12:03:37;;;;;;;;;8.00;8.00;;;;;23.63;41.30;102043.16;5003378;28;51380;-49
2021/10/27 12:06:07;;;;;;;;;12.00;8.00;;;;;23.60;41.39;102039.75;5003785;28;51149;-51
2021/10/27 12:16:46;;;;;;;;;8.25;7.75;;;;;23.57;41.30;102022.72;5001530;28;51175;-51
2021/10/27 12:19:19;;;;;;;;;10.00;7.00;;;;;23.54;41.23;102015.66;5007385;28;51316;-49
2021/10/27 12:22:03;;;;;;;;;7.50;6.25;;;;;23.55;41.54;102011.00;5004128;28;51318;-50
2021/10/27 12:24:40;;;;;;;;;8.25;8.25;;;;;23.52;41.12;102003.97;4997121;28;51695;-45
2021/10/27 12:27:21;;;;;;;;;6.50;6.00;;;;;23.52;41.08;101998.44;4998722;28;51043;-45
2021/10/27 12:29:58;;;;;;;;;7.50;6.75;;;;;23.52;41.51;101992.06;5001081;28;51900;-52
2021/10/27 12:32:25;;;;;;;;;6.25;5.00;;;;;23.51;41.17;101987.59;5004693;28;51101;-48
2021/10/27 12:34:51;;;;;;;;;7.25;6.25;;;;;23.50;41.28;101986.75;5004866;28;51031;-50
2021/10/27 12:37:32;;;;;;;;;8.25;6.50;;;;;23.50;41.22;101975.69;5003788;28;52092;-47
2021/10/27 12:40:27;;;;;;;;;5.50;5.50;;;;;23.50;41.30;101978.47;5000436;28;52091;-48
2021/10/27 12:43:09;;;;;;;;;9.50;7.00;;;;;23.49;41.19;101965.69;5007144;28;50963;-49
2021/10/27 12:45:36;;;;;;;;;4.75;4.75;;;;;23.56;41.33;101960.16;5009251;28;51188;-51
2021/10/27 12:48:07;;;;;;;;;5.25;5.25;;;;;23.65;41.18;101958.03;5008007;28;51417;-51
2021/10/27 12:50:33;;;;;;;;;7.00;6.25;;;;;23.75;41.39;101966.72;5002076;28;51169;-50
2021/10/27 12:53:01;;;;;;;;;5.00;5.00;;;;;23.84;41.05;101963.50;5003981;28;51096;-48
2021/10/27 12:55:39;;;;;;;;;6.00;5.25;;;;;23.94;40.97;101960.28;4990186;28;51181;-47
2021/10/27 12:58:15;;;;;;;;;6.00;5.00;;;;;24.02;40.94;101956.41;5009412;28;51183;-50
2021/10/27 13:19:14;;;;;;;;;4.75;4.75;;;;;24.25;40.03;101936.50;4957815;28;51481;-51
2021/10/27 13:32:20;;;;;;;;;6.00;4.00;;;;;24.15;40.21;101910.13;5005279;28;51679;-49
2021/10/27 13:34:45;;;;;;;;;6.25;5.75;;;;;24.19;40.51;101910.56;5005608;28;51642;-49
2021/10/27 13:37:12;;;;;;;;;6.00;6.00;;;;;24.25;40.45;101906.03;5009685;28;51381;-51
2021/10/27 13:39:38;;;;;;;;;4.25;4.25;;;;;24.31;40.14;101902.44;5004396;28;51408;-48
2021/10/27 13:42:11;;;;;;;;;6.75;4.50;;;;;24.38;40.35;101898.53;5002972;28;52591;-51
2021/10/27 13:44:45;;;;;;;;;4.75;3.00;;;;;24.45;40.09;101893.78;5006769;28;51468;-45
2021/10/27 13:47:27;;;;;;;;;6.00;4.25;;;;;24.48;39.97;101898.03;4999286;28;50988;-52
2021/10/27 14:06:48;;;;;;;;;4.00;4.00;;;;;24.37;40.30;101879.38;5004830;28;52508;-50
2021/10/27 14:09:21;;;;;;;;;5.00;5.00;;;;;24.35;40.23;101870.44;5004050;28;51304;-46
2021/10/27 14:14:23;;;;;;;;;5.00;5.00;;;;;24.33;40.10;101869.81;5007742;28;51875;-51
2021/10/27 15:20:13;;;;;;;;;2.50;2.50;;;;;24.45;39.94;101816.25;4927488;28;51210;-49
2021/10/27 15:36:24;;;;;;;;;3.00;3.00;;;;;24.54;39.84;101807.66;5000422;28;51409;-52
2021/10/27 15:52:16;;;;;;;;;3.50;2.75;;;;;24.31;40.18;101794.44;4999039;28;51277;-50
2021/10/27 15:54:43;;;;;;;;;3.00;3.00;;;;;24.27;40.62;101795.91;4998242;28;51549;-49
2021/10/27 15:57:10;;;;;;;;;3.00;2.75;;;;;24.24;40.57;101796.38;5002613;28;51555;-48
2021/10/27 15:59:36;;;;;;;;;2.50;2.00;;;;;24.18;40.54;101800.91;5000904;28;51158;-48
2021/10/27 16:02:01;;;;;;;;;3.25;1.00;;;;;24.15;40.29;101795.78;4998395;28;51888;-46
2021/10/27 16:04:27;;;;;;;;;2.00;2.00;;;;;24.17;40.55;101804.72;5003144;28;51274;-52
2021/10/27 16:06:54;;;;;;;;;2.00;2.00;;;;;24.21;40.52;101807.91;5005241;28;51214;-50
2021/10/27 16:09:25;;;;;;;;;2.00;2.00;;;;;24.25;40.27;101798.06;5000473;28;51230;-48
2021/10/27 16:11:51;;;;;;;;;3.00;2.50;;;;;24.30;40.46;101799.09;5002298;28;52862;-46
2021/10/27 16:14:21;;;;;;;;;3.25;3.25;;;;;24.33;40.35;101793.13;5008769;28;51170;-50
2021/10/27 16:16:46;;;;;;;;;2.00;2.00;;;;;24.33;40.42;101795.91;5006351;28;51092;-49
2021/10/27 16:19:11;;;;;;;;;4.00;4.00;;;;;24.32;40.21;101802.53;5005260;28;51343;-49